Time;durP1;ratioP1;P1;durP2;ratioP2;P2;SDS_P1;SDS_P2;PMS_P1;PMS_P2;Temp;Humidity;BMP_temperature;BMP_pressure;BME280_temperature;BME280_humidity;BME280_pressure;Samples;Min_cycle;Max_cycle;Signal;HPM_P1;HPM_P2
2023/04/21 00:01:07;;;;;;;2.23;2.03;;;17.50;58.20;18.20;100590.00;;;;5028713;28;20205;-53
2023/04/21 00:03:36;;;;;;;2.40;2.17;;;17.40;58.20;18.20;100579.00;;;;5044790;28;20211;-51
2023/04/21 00:06:05;;;;;;;2.37;2.17;;;17.50;58.30;18.20;100574.00;;;;5029381;28;20179;-52
2023/04/21 00:08:30;;;;;;;2.33;2.10;;;17.40;58.20;18.20;100580.00;;;;5031798;28;20204;-53
2023/04/21 00:10:56;;;;;;;2.17;2.07;;;17.40;58.10;18.20;100574.00;;;;5031763;28;20215;-51
2023/04/21 00:13:22;;;;;;;2.00;1.90;;;17.40;58.20;18.20;100568.00;;;;5031528;28;20269;-52
2023/04/21 00:15:48;;;;;;;2.10;2.00;;;17.40;58.20;18.20;100565.00;;;;5030418;28;20174;-52
2023/04/21 00:18:15;;;;;;;2.03;1.93;;;17.40;58.20;18.20;100554.00;;;;5031434;28;20199;-52
2023/04/21 00:20:41;;;;;;;2.10;2.00;;;17.30;58.20;18.10;100557.00;;;;5031814;28;20255;-52
2023/04/21 00:23:09;;;;;;;2.10;2.00;;;17.30;58.30;18.10;100553.00;;;;5031373;28;20248;-54
2023/04/21 00:25:35;;;;;;;2.17;2.07;;;17.30;58.30;18.10;100553.00;;;;5031279;28;20212;-54
2023/04/21 00:28:01;;;;;;;2.30;2.20;;;17.30;58.30;18.10;100558.00;;;;5031884;28;20205;-51
2023/04/21 00:30:27;;;;;;;2.33;2.13;;;17.30;58.30;18.10;100552.00;;;;5031890;28;20189;-53
2023/04/21 00:32:52;;;;;;;2.43;1.93;;;17.30;58.30;18.10;100539.00;;;;5031922;28;20173;-52
2023/04/21 00:35:19;;;;;;;2.13;2.00;;;17.30;58.30;18.00;100546.00;;;;5031213;28;20235;-53
2023/04/21 00:37:45;;;;;;;2.40;2.20;;;17.30;58.40;18.00;100553.00;;;;5031638;28;20228;-52
2023/04/21 00:40:12;;;;;;;2.20;2.10;;;17.20;58.20;18.00;100534.00;;;;5034309;28;20178;-52
2023/04/21 00:42:38;;;;;;;3.47;2.10;;;17.20;58.20;18.00;100538.00;;;;5036147;28;20182;-52
2023/04/21 00:45:04;;;;;;;2.13;1.97;;;17.20;58.20;18.00;100536.00;;;;5031682;28;20186;-52
2023/04/21 00:47:30;;;;;;;2.20;2.00;;;17.20;58.20;18.00;100528.00;;;;5031057;28;20208;-53
2023/04/21 00:49:57;;;;;;;2.20;2.10;;;17.20;58.30;18.00;100529.00;;;;5031392;28;20197;-53
2023/04/21 00:52:23;;;;;;;2.37;2.17;;;17.20;58.30;18.00;100534.00;;;;5031206;28;20180;-52
2023/04/21 00:54:48;;;;;;;2.20;2.00;;;17.20;58.30;17.90;100528.00;;;;5031130;28;20229;-52
2023/04/21 00:57:14;;;;;;;2.37;2.17;;;17.20;58.40;17.90;100532.00;;;;5029272;28;20208;-52
2023/04/21 00:59:40;;;;;;;2.00;1.90;;;17.20;58.40;17.90;100541.00;;;;5030905;28;20271;-52
2023/04/21 01:02:06;;;;;;;2.03;1.93;;;17.10;58.40;17.90;100526.00;;;;5031193;28;20268;-53
2023/04/21 01:04:35;;;;;;;1.83;1.73;;;17.10;58.30;17.90;100518.00;;;;5030650;28;20694;-53
2023/04/21 01:07:02;;;;;;;1.80;1.70;;;17.10;58.40;17.80;100511.00;;;;5031031;28;20192;-52
2023/04/21 01:09:28;;;;;;;2.23;2.13;;;17.00;58.40;17.80;100512.00;;;;5029224;28;20182;-53
2023/04/21 01:12:05;;;;;;;2.40;2.20;;;17.00;58.30;17.80;100510.00;;;;5030689;28;20668;-52
2023/04/21 01:14:31;;;;;;;2.20;2.00;;;17.10;58.40;17.80;100506.00;;;;5037880;28;20194;-53
2023/04/21 01:16:57;;;;;;;2.17;2.00;;;17.00;58.40;17.80;100498.00;;;;5029004;28;20210;-52
2023/04/21 01:19:23;;;;;;;2.10;2.00;;;17.00;58.50;17.80;100506.00;;;;5031074;28;20180;-52
2023/04/21 01:21:56;;;;;;;2.50;2.30;;;17.00;58.50;17.80;100501.00;;;;5030818;28;20181;-53
2023/04/21 01:24:23;;;;;;;2.30;2.10;;;17.00;58.50;17.80;100505.00;;;;5030016;28;20257;-52
2023/04/21 01:26:49;;;;;;;2.30;2.17;;;17.00;58.50;17.70;100501.00;;;;5029960;28;20211;-54
2023/04/21 01:29:16;;;;;;;2.20;2.10;;;17.00;58.50;17.80;100510.00;;;;5030439;28;20168;-53
2023/04/21 01:31:42;;;;;;;2.30;2.20;;;17.00;58.50;17.70;100489.00;;;;5030197;28;20171;-53
2023/04/21 01:34:08;;;;;;;2.20;2.10;;;17.00;58.50;17.70;100508.00;;;;5028547;28;20179;-53
2023/04/21 01:36:35;;;;;;;2.30;2.10;;;17.00;58.50;17.70;100507.00;;;;5030416;28;20538;-53
2023/04/21 01:39:01;;;;;;;2.17;1.97;;;17.00;58.50;17.50;100508.00;;;;5030856;28;20211;-53
2023/04/21 01:41:26;;;;;;;2.00;1.90;;;16.90;58.50;17.70;100510.00;;;;5030498;28;20185;-53
2023/04/21 01:43:52;;;;;;;2.20;2.10;;;16.90;58.40;17.70;100513.00;;;;5029837;28;20215;-54
2023/04/21 01:46:21;;;;;;;2.23;2.10;;;16.90;58.50;17.70;100430.00;;;;5043202;28;20190;-55
2023/04/21 01:48:47;;;;;;;2.33;2.13;;;17.00;58.50;17.70;100507.00;;;;5038560;28;20174;-54
2023/04/21 01:51:12;;;;;;;2.20;2.00;;;16.90;58.40;17.70;100507.00;;;;5031531;28;20194;-53
2023/04/21 01:53:38;;;;;;;2.50;2.30;;;17.00;58.50;17.70;100518.00;;;;5031870;28;20262;-53
2023/04/21 01:56:04;;;;;;;2.10;2.00;;;16.90;58.40;17.70;100514.00;;;;5031131;28;20183;-54
2023/04/21 01:58:30;;;;;;;2.40;2.20;;;16.90;58.40;17.70;100523.00;;;;5031113;28;20603;-54
2023/04/21 02:00:56;;;;;;;2.10;2.00;;;16.90;58.40;17.70;100523.00;;;;5045000;28;20188;-54
2023/04/21 02:03:21;;;;;;;2.20;2.10;;;16.90;58.40;17.70;100524.00;;;;5035656;28;20275;-53
2023/04/21 02:05:49;;;;;;;2.43;2.23;;;16.90;58.50;17.70;100513.00;;;;5029967;28;20171;-53
2023/04/21 02:08:16;;;;;;;2.17;2.07;;;16.90;58.60;17.70;100513.00;;;;5032917;28;20187;-53
2023/04/21 02:10:41;;;;;;;2.60;2.40;;;16.90;58.50;17.60;100514.00;;;;5031801;28;20189;-54
2023/04/21 02:13:07;;;;;;;2.40;2.20;;;16.90;58.50;17.60;100517.00;;;;5029834;28;20175;-54
2023/04/21 02:15:33;;;;;;;2.37;2.20;;;16.80;58.50;17.60;100511.00;;;;5029550;28;20198;-53
2023/04/21 02:17:59;;;;;;;2.20;2.10;;;16.80;58.60;17.60;100516.00;;;;5029186;28;20196;-53
2023/04/21 02:20:25;;;;;;;2.10;2.00;;;16.90;58.70;17.60;100513.00;;;;5029784;28;20205;-53
2023/04/21 02:22:50;;;;;;;2.40;2.20;;;16.90;58.80;17.60;100515.00;;;;5029412;28;20282;-52
2023/04/21 02:25:16;;;;;;;2.50;2.30;;;16.80;58.60;17.60;100503.00;;;;5029299;28;20265;-52
2023/04/21 02:27:42;;;;;;;2.37;2.17;;;16.80;58.70;17.60;100513.00;;;;5029241;28;20201;-52
2023/04/21 02:30:08;;;;;;;2.53;2.33;;;16.90;58.70;17.60;100510.00;;;;5028735;28;20200;-52
2023/04/21 02:32:34;;;;;;;2.30;2.10;;;16.80;58.60;17.60;100508.00;;;;5029226;28;20555;-52
2023/04/21 02:34:59;;;;;;;2.43;2.23;;;16.90;58.60;17.10;100508.00;;;;5029012;28;20192;-52
2023/04/21 02:37:25;;;;;;;2.40;2.23;;;16.80;58.60;17.60;100506.00;;;;5035966;28;20201;-52
2023/04/21 02:39:51;;;;;;;2.23;2.13;;;16.80;58.60;17.60;100510.00;;;;5034725;28;20184;-51
2023/04/21 02:42:16;;;;;;;2.40;2.30;;;16.80;58.60;17.60;100506.00;;;;5038490;28;20596;-52
2023/04/21 02:44:42;;;;;;;2.97;2.20;;;16.80;58.60;17.60;100508.00;;;;5028944;28;20202;-52
2023/04/21 02:47:08;;;;;;;2.37;2.20;;;16.80;58.70;17.60;100512.00;;;;5027425;28;20197;-52
2023/04/21 02:49:34;;;;;;;2.50;2.30;;;16.80;58.70;17.60;100515.00;;;;5027600;28;20183;-52
2023/04/21 02:52:00;;;;;;;2.37;2.20;;;16.80;58.70;17.60;100509.00;;;;5028688;28;20191;-53
2023/04/21 02:54:26;;;;;;;2.50;2.30;;;16.80;58.70;17.60;100521.00;;;;5028587;28;20610;-52
2023/04/21 02:56:51;;;;;;;2.50;2.30;;;16.80;58.70;17.50;100515.00;;;;5028596;28;20258;-53
2023/04/21 02:59:17;;;;;;;2.50;2.30;;;16.80;58.80;17.50;100506.00;;;;5028779;28;20650;-52
2023/04/21 03:01:43;;;;;;;2.30;2.10;;;16.70;58.70;17.60;100513.00;;;;5027755;28;20184;-54
2023/04/21 03:04:08;;;;;;;2.60;2.40;;;16.80;58.70;17.50;100516.00;;;;5030219;28;20204;-54
2023/04/21 03:06:34;;;;;;;2.50;2.30;;;16.70;58.70;17.50;100513.00;;;;5029577;28;20179;-52
2023/04/21 03:09:00;;;;;;;2.30;2.20;;;16.70;58.70;17.50;100524.00;;;;5029451;28;20559;-53
2023/04/21 03:11:26;;;;;;;2.60;2.40;;;16.70;58.70;17.50;100526.00;;;;5028837;28;20260;-54
2023/04/21 03:13:51;;;;;;;2.57;2.37;;;16.70;58.60;17.50;100529.00;;;;5028372;28;20554;-52
2023/04/21 03:16:18;;;;;;;2.40;2.20;;;16.80;58.80;17.50;100530.00;;;;5028536;28;20187;-52
2023/04/21 03:18:44;;;;;;;2.40;2.20;;;16.70;58.70;17.50;100530.00;;;;5028746;28;20606;-52
2023/04/21 03:21:10;;;;;;;2.53;2.33;;;16.70;58.70;17.50;100528.00;;;;5028302;28;20256;-54
2023/04/21 03:23:36;;;;;;;2.40;2.23;;;16.70;58.70;17.50;100520.00;;;;5028253;28;20298;-52
2023/04/21 03:26:08;;;;;;;2.30;2.20;;;16.70;58.70;17.50;100538.00;;;;5025887;28;20183;-53
2023/04/21 03:28:34;;;;;;;3.57;2.33;;;16.70;58.70;17.50;100524.00;;;;5026299;28;20233;-52
2023/04/21 03:31:00;;;;;;;2.80;2.43;;;16.70;59.50;17.40;100521.00;;;;5026913;28;20179;-52
2023/04/21 03:33:25;;;;;;;2.40;2.20;;;16.70;59.00;17.40;100529.00;;;;5024845;28;20696;-53
2023/04/21 03:35:51;;;;;;;3.20;2.60;;;16.70;59.00;17.40;100529.00;;;;5032944;28;20186;-53
2023/04/21 03:38:17;;;;;;;2.83;2.57;;;16.60;58.90;17.40;100529.00;;;;5028275;28;20207;-51
2023/04/21 03:40:43;;;;;;;2.70;2.50;;;16.60;58.90;17.40;100535.00;;;;5029939;28;20179;-53
2023/04/21 03:43:08;;;;;;;2.70;2.47;;;16.60;58.90;17.40;100536.00;;;;5035574;28;20675;-52
2023/04/21 03:45:34;;;;;;;4.23;2.60;;;16.60;58.90;17.40;100536.00;;;;5041696;28;20174;-53
2023/04/21 03:48:00;;;;;;;2.83;2.47;;;16.60;58.90;17.40;100527.00;;;;5044962;28;20213;-53
2023/04/21 03:50:26;;;;;;;3.10;2.80;;;16.60;58.80;17.40;100530.00;;;;5036122;28;20182;-52
2023/04/21 03:52:52;;;;;;;3.27;2.73;;;16.60;58.70;17.40;100525.00;;;;5035988;28;20180;-52
2023/04/21 03:55:17;;;;;;;2.93;2.70;;;16.60;58.70;17.40;100522.00;;;;5034713;28;20182;-52
2023/04/21 03:57:43;;;;;;;3.00;2.80;;;16.60;58.70;17.40;100519.00;;;;5035479;28;20698;-52
2023/04/21 04:00:10;;;;;;;3.40;2.77;;;16.60;58.60;17.40;100523.00;;;;5046305;28;20183;-53
2023/04/21 04:02:36;;;;;;;3.30;3.00;;;16.60;58.60;17.30;100515.00;;;;5038403;28;20180;-52
2023/04/21 04:05:04;;;;;;;3.70;3.10;;;16.50;58.50;17.30;100524.00;;;;5033922;28;20189;-52
2023/04/21 04:07:32;;;;;;;3.20;2.90;;;16.50;58.50;17.30;100515.00;;;;5032929;28;20213;-52
2023/04/21 04:09:58;;;;;;;3.60;3.30;;;16.50;58.50;17.30;100519.00;;;;5033147;28;20630;-52
2023/04/21 04:12:24;;;;;;;3.57;3.27;;;16.50;58.40;17.30;100504.00;;;;5033279;28;20177;-52
2023/04/21 04:14:49;;;;;;;4.80;3.40;;;16.50;58.40;17.30;100512.00;;;;5031614;28;20184;-52
2023/04/21 04:17:15;;;;;;;3.73;3.43;;;16.50;58.40;17.30;100522.00;;;;5024558;28;20202;-52
2023/04/21 04:19:41;;;;;;;3.50;3.20;;;16.50;58.40;17.30;100522.00;;;;5033000;28;20179;-52
2023/04/21 04:22:07;;;;;;;3.60;3.30;;;16.50;58.30;17.30;100522.00;;;;5032745;28;20547;-52
2023/04/21 04:24:33;;;;;;;4.00;3.70;;;16.50;58.20;17.20;100521.00;;;;5024836;28;20211;-52
2023/04/21 04:27:01;;;;;;;3.83;3.53;;;16.40;58.20;17.20;100521.00;;;;5032585;28;20215;-52
2023/04/21 04:29:27;;;;;;;3.73;3.43;;;16.40;58.20;17.20;100528.00;;;;5022112;28;20241;-52
2023/04/21 04:31:53;;;;;;;4.33;3.50;;;16.40;58.10;17.20;100531.00;;;;5017049;28;20185;-52
2023/04/21 04:34:19;;;;;;;4.10;3.80;;;16.40;58.10;17.20;100531.00;;;;5018962;28;20186;-52
2023/04/21 04:36:46;;;;;;;4.23;3.40;;;16.40;58.20;17.20;100526.00;;;;5032310;28;20746;-52
2023/04/21 04:39:12;;;;;;;3.87;3.57;;;16.40;58.10;17.20;100525.00;;;;5031718;28;20190;-52
2023/04/21 04:41:38;;;;;;;4.17;3.87;;;16.40;58.00;17.20;100535.00;;;;5031897;28;20183;-52
2023/04/21 04:44:04;;;;;;;3.73;3.43;;;16.30;58.00;17.20;100531.00;;;;5031300;28;20252;-51
2023/04/21 04:46:31;;;;;;;4.10;3.80;;;16.40;58.20;17.20;100536.00;;;;5030771;28;20207;-52
2023/04/21 04:48:56;;;;;;;4.03;3.67;;;16.40;58.20;17.10;100532.00;;;;5031198;28;20699;-52
2023/04/21 04:51:22;;;;;;;4.17;3.87;;;16.40;58.20;17.10;100528.00;;;;5031624;28;20183;-53
2023/04/21 04:53:48;;;;;;;4.20;3.90;;;16.40;58.20;17.10;100524.00;;;;5030436;28;20238;-52
2023/04/21 04:56:14;;;;;;;5.10;3.93;;;16.30;58.10;17.10;100536.00;;;;5031642;28;20640;-52
2023/04/21 04:58:39;;;;;;;7.50;4.00;;;16.30;58.10;17.10;100533.00;;;;5031894;28;20204;-53
2023/04/21 05:01:15;;;;;;;10.60;4.87;;;16.30;58.20;17.10;100530.00;;;;5031556;28;20287;-53
2023/04/21 05:03:41;;;;;;;10.73;4.80;;;16.30;58.20;17.10;100533.00;;;;5029326;28;20707;-52
2023/04/21 05:06:07;;;;;;;12.87;4.70;;;16.30;58.10;17.00;100542.00;;;;5031633;28;20198;-52
2023/04/21 05:08:33;;;;;;;10.80;4.70;;;16.20;58.00;17.00;100533.00;;;;5031768;28;20203;-52
2023/04/21 05:10:59;;;;;;;12.57;5.43;;;16.30;58.10;17.00;100538.00;;;;5031918;28;20198;-52
2023/04/21 05:13:24;;;;;;;12.23;5.50;;;16.30;58.20;17.00;100540.00;;;;5030547;28;20592;-52
2023/04/21 05:16:00;;;;;;;10.03;5.13;;;16.30;58.20;17.00;100547.00;;;;5031323;28;20183;-52
2023/04/21 05:18:26;;;;;;;9.43;4.43;;;16.20;58.20;17.00;100540.00;;;;5031354;28;20198;-53
2023/04/21 05:20:52;;;;;;;10.37;5.10;;;16.20;58.20;17.00;100529.00;;;;5032008;28;20231;-53
2023/04/21 05:23:18;;;;;;;10.27;5.00;;;16.20;58.20;17.00;100542.00;;;;5033359;28;20207;-53
2023/04/21 05:25:44;;;;;;;7.27;4.80;;;16.30;58.20;17.00;100553.00;;;;5031972;28;20756;-53
2023/04/21 05:28:09;;;;;;;12.83;5.10;;;16.20;58.80;17.00;100551.00;;;;5034507;28;20206;-53
2023/04/21 05:30:35;;;;;;;10.90;4.93;;;16.20;58.20;17.00;100549.00;;;;5031009;28;20183;-54
2023/04/21 05:33:01;;;;;;;7.47;4.50;;;16.20;58.20;17.00;100542.00;;;;5031258;28;20180;-54
2023/04/21 05:35:29;;;;;;;9.00;4.50;;;16.20;58.20;17.00;100542.00;;;;5031033;28;20650;-53
2023/04/21 05:37:55;;;;;;;8.77;4.77;;;16.20;58.20;17.00;100547.00;;;;5031130;28;20198;-53
2023/04/21 05:40:21;;;;;;;10.37;5.10;;;16.20;58.20;17.00;100552.00;;;;5030814;28;20179;-53
2023/04/21 05:42:47;;;;;;;9.60;4.80;;;16.20;58.30;17.00;100550.00;;;;5034058;28;20665;-53
2023/04/21 05:45:12;;;;;;;7.80;4.60;;;16.10;58.10;17.00;100553.00;;;;5051289;28;20630;-53
2023/04/21 05:47:38;;;;;;;9.83;4.70;;;16.20;58.20;17.00;100546.00;;;;5034098;28;20256;-56
2023/04/21 05:50:05;;;;;;;7.30;4.00;;;16.10;58.10;17.00;100554.00;;;;5032202;28;20175;-53
2023/04/21 05:52:31;;;;;;;13.70;4.43;;;16.20;58.30;17.00;100539.00;;;;5032073;28;20175;-53
2023/04/21 05:54:58;;;;;;;10.17;4.73;;;16.10;58.20;16.90;100537.00;;;;5030284;28;20177;-53
2023/04/21 05:57:24;;;;;;;6.73;4.03;;;16.10;58.30;16.90;100535.00;;;;5037632;28;20202;-53
2023/04/21 05:59:50;;;;;;;9.00;4.40;;;16.10;58.20;16.90;100536.00;;;;5041098;28;20175;-53
2023/04/21 06:02:15;;;;;;;5.67;4.33;;;16.10;58.20;16.90;100537.00;;;;5031642;28;20175;-52
2023/04/21 06:04:41;;;;;;;6.37;4.27;;;16.10;58.40;16.90;100542.00;;;;5029622;28;20207;-53
2023/04/21 06:07:08;;;;;;;6.40;3.87;;;16.10;58.50;16.90;100548.00;;;;5030670;28;20191;-53
2023/04/21 06:09:35;;;;;;;7.77;4.43;;;16.10;58.50;16.90;100556.00;;;;5033509;28;20635;-52
2023/04/21 06:12:01;;;;;;;5.27;4.00;;;16.10;58.50;16.90;100546.00;;;;5032035;28;20792;-52
2023/04/21 06:14:27;;;;;;;6.80;4.10;;;16.10;58.50;16.90;100537.00;;;;5034384;28;20688;-52
2023/04/21 06:16:52;;;;;;;5.13;3.60;;;16.00;58.30;16.80;100539.00;;;;5031603;28;20198;-52
2023/04/21 06:19:18;;;;;;;5.53;3.87;;;16.10;58.50;16.80;100542.00;;;;5030879;28;20179;-53
2023/04/21 06:21:44;;;;;;;8.67;4.10;;;16.10;58.50;16.80;100543.00;;;;5029979;28;20665;-53
2023/04/21 06:24:10;;;;;;;7.33;4.23;;;16.00;58.30;16.80;100539.00;;;;5029428;28;20681;-53
2023/04/21 06:26:35;;;;;;;8.53;4.20;;;16.00;58.40;16.80;100532.00;;;;5022007;28;20188;-53
2023/04/21 06:29:01;;;;;;;6.37;4.13;;;16.00;58.40;16.80;100539.00;;;;5030162;28;20178;-52
2023/04/21 06:31:27;;;;;;;4.13;3.60;;;16.00;58.40;16.80;100537.00;;;;5024790;28;20599;-53
2023/04/21 06:33:52;;;;;;;4.93;3.73;;;16.00;58.40;16.80;100540.00;;;;5017420;28;20181;-53
2023/04/21 06:36:20;;;;;;;4.13;3.60;;;16.00;58.50;16.80;100549.00;;;;5018802;28;20649;-52
2023/04/21 06:38:46;;;;;;;6.67;3.70;;;16.00;58.50;16.80;100547.00;;;;5018240;28;20197;-53
2023/04/21 06:41:12;;;;;;;4.17;3.53;;;16.00;58.50;16.80;100553.00;;;;5019678;28;20551;-53
2023/04/21 06:43:37;;;;;;;5.20;3.40;;;16.00;58.50;16.80;100549.00;;;;5017261;28;20214;-52
2023/04/21 06:46:03;;;;;;;5.90;3.93;;;16.00;59.20;16.80;100549.00;;;;5028937;28;20184;-52
2023/04/21 06:48:29;;;;;;;7.17;4.20;;;16.00;58.70;16.80;100549.00;;;;5029762;28;20602;-51
2023/04/21 06:50:55;;;;;;;4.70;3.80;;;16.00;58.90;16.80;100552.00;;;;5028164;28;20171;-53
2023/04/21 06:53:21;;;;;;;5.20;3.80;;;16.00;58.90;16.70;100531.00;;;;5029354;28;20206;-53
2023/04/21 06:55:47;;;;;;;5.90;3.33;;;16.00;58.90;16.70;100537.00;;;;5020138;28;20680;-53
2023/04/21 06:58:13;;;;;;;4.57;3.23;;;16.00;58.90;16.70;100535.00;;;;5029593;28;20230;-52
2023/04/21 07:00:39;;;;;;;4.60;3.80;;;16.00;58.90;16.70;100538.00;;;;5029086;28;20178;-52
2023/04/21 07:03:05;;;;;;;5.70;4.00;;;15.90;58.70;16.70;100541.00;;;;5028766;28;20221;-53
2023/04/21 07:05:31;;;;;;;4.50;3.70;;;16.00;58.80;16.70;100541.00;;;;5028791;28;20644;-52
2023/04/21 07:07:58;;;;;;;5.93;3.60;;;15.90;58.90;16.70;100534.00;;;;5029205;28;20198;-53
2023/04/21 07:10:27;;;;;;;5.20;3.37;;;16.00;59.10;16.70;100549.00;;;;5032085;28;20635;-54
2023/04/21 07:12:54;;;;;;;4.77;3.47;;;15.90;59.00;16.70;100538.00;;;;5036734;28;20171;-52
2023/04/21 07:15:19;;;;;;;4.67;3.77;;;16.00;59.10;16.70;100541.00;;;;5028688;28;20179;-51
2023/04/21 07:17:45;;;;;;;4.43;3.30;;;15.90;59.00;16.70;100545.00;;;;5032002;28;20264;-54
2023/04/21 07:20:11;;;;;;;4.90;3.60;;;15.90;59.10;16.70;100537.00;;;;5030110;28;20198;-51
2023/04/21 07:22:37;;;;;;;8.87;3.63;;;15.90;59.00;16.70;100539.00;;;;5028756;28;20194;-52
2023/04/21 07:25:06;;;;;;;3.77;3.23;;;15.90;59.00;16.70;100528.00;;;;5029065;28;20175;-53
2023/04/21 07:27:37;;;;;;;4.33;3.30;;;15.90;59.00;16.70;100539.00;;;;5029284;28;20221;-51
2023/04/21 07:30:06;;;;;;;5.60;3.70;;;15.90;59.10;16.70;100534.00;;;;5029961;28;20182;-52
2023/04/21 07:32:32;;;;;;;4.40;3.57;;;15.90;59.10;16.70;100532.00;;;;5029446;28;20550;-54
2023/04/21 07:35:00;;;;;;;4.30;3.43;;;15.90;59.20;16.70;100523.00;;;;5029296;28;20175;-53
2023/04/21 07:37:26;;;;;;;4.13;3.30;;;15.90;59.30;16.60;100542.00;;;;5027737;28;20206;-51
2023/04/21 07:39:51;;;;;;;4.87;3.40;;;16.00;59.40;16.60;100538.00;;;;5029649;28;20233;-51
2023/04/21 07:42:17;;;;;;;4.13;3.50;;;15.80;59.20;16.60;100532.00;;;;5037628;28;20206;-52
2023/04/21 07:44:43;;;;;;;5.27;3.57;;;15.80;59.80;16.60;100524.00;;;;5043275;28;20210;-52
2023/04/21 07:47:08;;;;;;;3.83;3.40;;;15.80;59.20;16.60;100534.00;;;;5031718;28;20194;-52
2023/04/21 07:49:34;;;;;;;4.83;3.27;;;15.80;59.20;16.60;100530.00;;;;5028302;28;20175;-52
2023/04/21 07:52:00;;;;;;;4.60;3.50;;;15.90;59.50;16.60;100539.00;;;;5029881;28;20190;-52
2023/04/21 07:54:26;;;;;;;5.53;3.40;;;15.80;59.20;16.60;100536.00;;;;5029823;28;20563;-52
2023/04/21 07:56:51;;;;;;;5.70;3.43;;;15.80;59.20;16.60;100537.00;;;;5034937;28;20179;-55
2023/04/21 07:59:17;;;;;;;9.27;4.07;;;15.80;59.20;16.60;100536.00;;;;5040430;28;20179;-52
2023/04/21 08:01:43;;;;;;;6.30;3.90;;;15.80;59.20;16.60;100538.00;;;;5029942;28;20194;-52
2023/04/21 08:04:09;;;;;;;8.53;3.80;;;15.90;59.30;16.60;100546.00;;;;5031404;28;20747;-54
2023/04/21 08:06:34;;;;;;;8.77;3.40;;;15.80;59.20;16.60;100546.00;;;;5033380;28;20225;-52
2023/04/21 08:09:00;;;;;;;8.67;3.57;;;15.80;59.20;16.60;100542.00;;;;5029383;28;20278;-52
2023/04/21 08:11:27;;;;;;;8.10;3.57;;;15.80;59.20;16.60;100543.00;;;;5028650;28;20190;-52
2023/04/21 08:13:53;;;;;;;7.10;3.30;;;15.80;59.20;16.60;100541.00;;;;5022935;28;20179;-53
2023/04/21 08:16:19;;;;;;;7.93;3.53;;;15.80;59.20;16.60;100530.00;;;;5028316;28;20183;-52
2023/04/21 08:18:44;;;;;;;5.50;3.50;;;15.80;59.20;16.60;100531.00;;;;5026961;28;20599;-52
2023/04/21 08:21:10;;;;;;;10.40;4.00;;;15.80;59.30;16.60;100540.00;;;;5028260;28;20179;-51
2023/04/21 08:23:36;;;;;;;9.70;3.50;;;15.80;59.40;16.60;100534.00;;;;5028614;28;20246;-53
2023/04/21 08:26:02;;;;;;;5.80;3.40;;;15.80;59.40;16.60;100516.00;;;;5028813;28;20210;-52
2023/04/21 08:28:28;;;;;;;12.93;4.03;;;15.80;59.40;16.60;100523.00;;;;5027503;28;20202;-52
2023/04/21 08:30:53;;;;;;;8.77;3.70;;;15.80;59.40;16.60;100532.00;;;;5027827;28;20179;-54
2023/04/21 08:33:19;;;;;;;6.83;3.63;;;15.70;59.30;16.60;100522.00;;;;5032152;28;20178;-54
2023/04/21 08:35:45;;;;;;;10.13;3.60;;;15.70;59.30;16.50;100523.00;;;;5032196;28;20179;-54
2023/04/21 08:38:11;;;;;;;5.97;3.60;;;15.70;59.30;16.60;100519.00;;;;5030979;28;20552;-56
2023/04/21 08:40:37;;;;;;;6.37;3.60;;;15.80;59.50;16.60;100523.00;;;;5030418;28;20183;-53
2023/04/21 08:43:07;;;;;;;9.03;3.57;;;15.70;59.50;16.50;100535.00;;;;5030752;28;20207;-53
2023/04/21 08:45:33;;;;;;;8.87;3.90;;;15.80;59.60;16.60;100522.00;;;;5030811;28;20183;-52
2023/04/21 08:47:59;;;;;;;8.53;4.00;;;15.80;59.60;16.60;100503.00;;;;5032210;28;20249;-52
2023/04/21 08:50:27;;;;;;;8.63;3.70;;;15.80;59.60;16.60;100520.00;;;;5030980;28;20186;-53
2023/04/21 08:52:56;;;;;;;7.00;3.43;;;15.80;59.60;16.30;100521.00;;;;5031491;28;20218;-53
2023/04/21 08:55:28;;;;;;;6.33;3.73;;;15.80;59.60;16.60;100509.00;;;;5031941;28;20167;-52
2023/04/21 08:57:54;;;;;;;8.07;3.73;;;15.80;59.60;16.60;100512.00;;;;5032011;28;20206;-54
2023/04/21 09:00:20;;;;;;;6.40;3.60;;;15.80;59.60;16.60;100505.00;;;;5030913;28;20179;-53
2023/04/21 09:02:59;;;;;;;6.20;3.20;;;15.80;59.60;16.60;100526.00;;;;5030368;28;20167;-52
2023/04/21 09:05:32;;;;;;;7.33;3.80;;;15.80;59.60;16.60;100521.00;;;;5030134;28;20615;-54
2023/04/21 09:08:11;;;;;;;6.33;3.50;;;15.80;59.60;16.60;100528.00;;;;5031854;28;20197;-53
2023/04/21 09:10:50;;;;;;;8.37;3.60;;;15.80;59.60;16.60;100529.00;;;;5031654;28;20181;-53
2023/04/21 09:13:17;;;;;;;7.60;3.97;;;15.80;59.60;16.60;100455.00;;;;5029787;28;20672;-53
2023/04/21 09:15:51;;;;;;;5.20;3.10;;;15.80;59.60;16.60;100529.00;;;;5031522;28;20183;-53
2023/04/21 09:18:21;;;;;;;10.90;3.33;;;15.80;59.60;16.60;100521.00;;;;5031665;28;20567;-53
2023/04/21 09:20:49;;;;;;;6.27;3.20;;;15.80;59.70;16.60;100523.00;;;;5031984;28;20547;-53
2023/04/21 09:23:15;;;;;;;6.40;3.40;;;15.80;59.80;16.60;100524.00;;;;5031486;28;20757;-53
2023/04/21 09:25:42;;;;;;;4.73;3.20;;;15.80;59.70;16.60;100519.00;;;;5031719;28;20273;-53
2023/04/21 09:28:09;;;;;;;4.27;3.27;;;15.80;59.70;16.60;100519.00;;;;5022331;28;20677;-54
2023/04/21 09:30:36;;;;;;;4.93;3.60;;;15.80;59.80;16.40;100518.00;;;;5023293;28;20207;-53
2023/04/21 09:33:01;;;;;;;6.07;3.50;;;15.80;59.80;16.60;100520.00;;;;5031840;28;20175;-53
2023/04/21 09:35:38;;;;;;;4.03;3.13;;;15.80;59.70;16.60;100516.00;;;;5030118;28;20183;-53
2023/04/21 09:38:12;;;;;;;5.53;3.40;;;15.80;59.80;16.60;100513.00;;;;5031400;28;20222;-53
2023/04/21 09:40:39;;;;;;;5.37;3.30;;;15.80;59.80;16.60;100505.00;;;;5036063;28;20334;-53
2023/04/21 09:43:05;;;;;;;6.60;3.40;;;15.80;59.70;16.70;100505.00;;;;5044920;28;20214;-54
2023/04/21 09:45:31;;;;;;;5.40;3.23;;;15.80;59.70;16.60;100504.00;;;;5035569;28;20233;-53
2023/04/21 09:48:02;;;;;;;5.73;3.40;;;15.80;59.70;16.60;100484.00;;;;5030230;28;20664;-53
2023/04/21 09:50:28;;;;;;;4.87;3.37;;;15.80;59.80;16.60;100495.00;;;;5032791;28;20186;-53
2023/04/21 09:52:55;;;;;;;4.37;3.40;;;15.80;59.70;16.70;100497.00;;;;5035668;28;20182;-53
2023/04/21 09:55:27;;;;;;;5.13;3.43;;;15.80;60.50;16.60;100486.00;;;;5034444;28;20282;-53
2023/04/21 09:57:58;;;;;;;4.37;3.30;;;15.80;59.70;16.70;100488.00;;;;5038083;28;20198;-53
2023/04/21 10:00:29;;;;;;;5.87;3.30;;;15.80;59.80;16.70;100488.00;;;;5034158;28;20171;-53
2023/04/21 10:02:57;;;;;;;4.17;3.10;;;15.80;59.80;16.70;100481.00;;;;5031154;28;20249;-53
2023/04/21 10:05:22;;;;;;;6.07;3.67;;;15.70;59.80;16.70;100472.00;;;;5031163;28;20566;-55
2023/04/21 10:07:49;;;;;;;3.40;3.10;;;15.80;59.90;16.70;100480.00;;;;5031323;28;20199;-53
2023/04/21 10:10:28;;;;;;;3.67;3.10;;;15.80;59.90;16.70;100475.00;;;;5031249;28;20658;-54
2023/04/21 10:12:54;;;;;;;3.80;3.23;;;15.80;59.90;16.70;100482.00;;;;5021889;28;20163;-55
2023/04/21 10:15:39;;;;;;;4.03;3.30;;;15.80;59.90;16.70;100483.00;;;;5029875;28;20240;-53
2023/04/21 10:18:20;;;;;;;4.47;3.30;;;15.80;60.00;16.60;100477.00;;;;5030722;28;20201;-53
2023/04/21 10:21:07;;;;;;;4.70;3.23;;;15.80;60.00;16.70;100469.00;;;;5030826;28;20749;-54
2023/04/21 10:23:43;;;;;;;9.33;3.60;;;15.80;60.00;16.70;100470.00;;;;5029605;28;20202;-54
2023/04/21 10:26:12;;;;;;;3.77;3.20;;;15.80;60.00;16.70;100467.00;;;;5029339;28;20183;-55
2023/04/21 10:28:40;;;;;;;4.10;3.17;;;15.80;60.10;16.70;100463.00;;;;5030532;28;20203;-54
2023/04/21 10:31:23;;;;;;;3.73;3.40;;;15.80;60.00;16.70;100464.00;;;;5029056;28;20633;-55
2023/04/21 10:34:12;;;;;;;3.30;3.00;;;15.80;60.20;16.70;100451.00;;;;5030754;28;20266;-55
2023/04/21 10:36:44;;;;;;;6.63;3.60;;;15.80;60.20;16.70;100452.00;;;;5031234;28;20314;-54
2023/04/21 10:39:15;;;;;;;8.20;3.70;;;15.80;60.50;16.70;100453.00;;;;5031659;28;20171;-53
2023/04/21 10:41:45;;;;;;;7.70;3.87;;;15.80;60.70;16.70;100443.00;;;;5027177;28;20187;-53
2023/04/21 10:44:14;;;;;;;7.70;3.47;;;15.80;61.00;16.80;100442.00;;;;5028668;28;20199;-53
2023/04/21 10:46:48;;;;;;;7.83;3.70;;;15.80;60.90;16.80;100449.00;;;;5028512;28;20325;-54